Time;durP1;ratioP1;P1;durP2;ratioP2;P2;SDS_P1;SDS_P2;PMS_P1;PMS_P2;Temp;Humidity;BMP_temperature;BMP_pressure;BME280_temperature;BME280_humidity;BME280_pressure;Samples;Min_cycle;Max_cycle;Signal;HPM_P1;HPM_P2
2023/11/30 00:01:20;;;;;;;14.70;8.80;;;;;;;-3.25;100.00;99465.18;89063;280;136232;-82
2023/11/30 00:03:22;;;;;;;15.00;8.90;;;;;;;-3.31;100.00;99467.02;89321;280;22883;-77
2023/11/30 00:05:23;;;;;;;15.40;8.80;;;;;;;-3.36;100.00;99468.40;89032;280;138014;-78
2023/11/30 00:07:25;;;;;;;14.30;7.70;;;;;;;-3.32;100.00;99475.76;89021;281;22524;-79
2023/11/30 00:09:27;;;;;;;16.80;10.70;;;;;;;-3.28;100.00;99480.85;88965;281;137833;-77
2023/11/30 00:11:29;;;;;;;15.50;9.30;;;;;;;-3.23;100.00;99490.02;88981;283;23653;-79
2023/11/30 00:13:31;;;;;;;18.60;10.00;;;;;;;-3.25;100.00;99490.70;88987;284;136142;-82
2023/11/30 00:15:32;;;;;;;15.30;9.20;;;;;;;-3.29;100.00;99495.37;89505;280;25232;-81
2023/11/30 00:17:34;;;;;;;17.90;9.80;;;;;;;-3.32;100.00;99502.17;89527;274;136121;-79
2023/11/30 00:19:39;;;;;;;14.70;9.90;;;;;;;-3.37;100.00;99505.16;89343;281;22466;-79
2023/11/30 00:21:41;;;;;;;15.60;8.70;;;;;;;-3.42;100.00;99508.52;88899;275;136924;-79
2023/11/30 00:23:43;;;;;;;12.30;8.50;;;;;;;-3.45;100.00;99510.14;89011;281;23959;-78
2023/11/30 00:25:45;;;;;;;18.60;10.20;;;;;;;-3.43;100.00;99508.77;88790;281;136743;-80
2023/11/30 00:27:47;;;;;;;16.30;9.80;;;;;;;-3.35;100.00;99511.74;88895;281;22526;-78
2023/11/30 00:29:49;;;;;;;15.60;9.20;;;;;;;-3.28;100.00;99511.82;88854;279;136659;-78
2023/11/30 00:31:51;;;;;;;13.50;9.40;;;;;;;-3.29;100.00;99520.41;89109;280;23711;-80
2023/11/30 00:33:53;;;;;;;14.00;9.50;;;;;;;-3.34;100.00;99522.79;88854;280;138508;-80
2023/11/30 00:38:05;;;;;;;16.20;11.00;;;;;;;-3.53;100.00;99522.61;87356;300;604123;-83
2023/11/30 00:40:08;;;;;;;19.50;11.90;;;;;;;-3.59;100.00;99525.31;88478;290;137132;-79
2023/11/30 00:42:10;;;;;;;18.00;10.70;;;;;;;-3.63;100.00;99529.77;88291;292;22532;-79
2023/11/30 00:44:12;;;;;;;17.90;11.20;;;;;;;-3.67;100.00;99527.96;88269;286;137034;-80
2023/11/30 00:46:15;;;;;;;17.70;11.10;;;;;;;-3.64;100.00;99527.97;88405;286;22551;-83
2023/11/30 00:48:17;;;;;;;18.20;11.70;;;;;;;-3.57;100.00;99528.92;88361;290;137498;-78
2023/11/30 00:50:21;;;;;;;16.60;10.90;;;;;;;-3.51;100.00;99538.58;88995;285;22719;-81
2023/11/30 00:52:23;;;;;;;14.70;10.10;;;;;;;-3.55;100.00;99535.73;88676;283;646353;-81
2023/11/30 00:54:24;;;;;;;17.30;11.40;;;;;;;-3.61;100.00;99532.21;88862;280;24596;-80
2023/11/30 00:56:26;;;;;;;15.50;10.60;;;;;;;-3.61;100.00;99539.66;88679;284;135684;-80
2023/11/30 00:58:28;;;;;;;20.10;11.10;;;;;;;-3.64;100.00;99536.58;88679;278;24058;-76
2023/11/30 01:00:30;;;;;;;17.60;12.30;;;;;;;-3.69;100.00;99545.49;89044;280;137265;-79
2023/11/30 01:02:32;;;;;;;18.20;12.20;;;;;;;-3.74;100.00;99548.61;89071;284;24021;-78
2023/11/30 01:04:34;;;;;;;17.20;10.40;;;;;;;-3.77;100.00;99551.99;88861;284;137113;-81
2023/11/30 01:06:36;;;;;;;18.10;10.00;;;;;;;-3.76;100.00;99548.96;88806;283;23182;-77
2023/11/30 01:08:38;;;;;;;17.90;11.30;;;;;;;-3.67;100.00;99547.79;88756;283;138101;-77
2023/11/30 01:10:41;;;;;;;17.50;10.40;;;;;;;-3.63;100.00;99550.45;88923;277;22537;-79
2023/11/30 01:12:42;;;;;;;20.70;11.50;;;;;;;-3.65;100.00;99548.98;88598;284;135888;-80
2023/11/30 01:14:44;;;;;;;20.00;12.50;;;;;;;-3.70;100.00;99550.41;88814;283;22541;-77
2023/11/30 01:16:46;;;;;;;17.40;10.30;;;;;;;-3.76;100.00;99555.71;88658;280;136199;-78
2023/11/30 01:18:48;;;;;;;16.40;11.10;;;;;;;-3.81;100.00;99559.27;88717;282;24058;-80
2023/11/30 01:20:51;;;;;;;17.00;10.70;;;;;;;-3.88;100.00;99557.68;88938;283;137145;-78
2023/11/30 01:22:53;;;;;;;17.80;11.10;;;;;;;-3.93;100.00;99555.44;88652;277;24176;-79
2023/11/30 01:24:55;;;;;;;21.30;11.90;;;;;;;-3.94;100.00;99564.52;88569;281;136305;-81
2023/11/30 01:26:57;;;;;;;17.80;10.50;;;;;;;-3.86;100.00;99567.63;88764;283;22550;-75
2023/11/30 01:28:59;;;;;;;19.70;11.40;;;;;;;-3.79;100.00;99567.45;88908;282;137059;-78
2023/11/30 01:31:01;;;;;;;18.00;13.30;;;;;;;-3.77;100.00;99574.56;88692;283;22546;-77
2023/11/30 01:33:03;;;;;;;15.40;9.90;;;;;;;-3.80;100.00;99578.80;88926;277;135809;-77
2023/11/30 01:35:06;;;;;;;17.20;11.10;;;;;;;-3.82;100.00;99580.33;88995;280;22616;-75
2023/11/30 01:37:08;;;;;;;19.20;12.10;;;;;;;-3.85;100.00;99586.63;89188;280;135677;-79
2023/11/30 01:39:10;;;;;;;18.20;11.00;;;;;;;-3.89;100.00;99589.88;88944;272;22533;-77
2023/11/30 01:41:13;;;;;;;19.80;11.40;;;;;;;-3.94;100.00;99594.56;88795;272;136179;-76
2023/11/30 01:43:17;;;;;;;20.50;11.10;;;;;;;-3.93;100.00;99598.64;88970;274;22541;-78
2023/11/30 01:45:19;;;;;;;19.80;11.20;;;;;;;-3.86;100.00;99602.17;88812;272;137023;-78
2023/11/30 01:47:23;;;;;;;21.30;11.90;;;;;;;-3.80;100.00;99608.85;88889;280;22598;-77
2023/11/30 01:49:26;;;;;;;19.00;10.10;;;;;;;-3.81;100.00;99613.92;88804;280;135986;-78
2023/11/30 01:51:31;;;;;;;17.80;12.10;;;;;;;-3.88;100.00;99612.91;89539;281;22598;-78
2023/11/30 01:53:36;;;;;;;17.40;12.50;;;;;;;-3.94;100.00;99618.54;89471;280;136060;-77
2023/11/30 01:55:40;;;;;;;20.40;11.60;;;;;;;-3.98;100.00;99618.48;89134;281;25146;-79
2023/11/30 01:57:42;;;;;;;17.60;11.70;;;;;;;-4.00;100.00;99626.98;89219;281;135953;-79
2023/11/30 01:59:46;;;;;;;18.40;10.90;;;;;;;-4.02;100.00;99624.70;89240;281;22561;-77
2023/11/30 02:01:48;;;;;;;17.50;9.90;;;;;;;-3.99;100.00;99626.20;88829;280;137416;-77
2023/11/30 02:03:51;;;;;;;14.80;10.20;;;;;;;-3.92;100.00;99625.13;88915;280;22523;-78
2023/11/30 02:05:53;;;;;;;17.30;11.50;;;;;;;-3.86;100.00;99633.20;88810;276;136836;-79
2023/11/30 02:07:55;;;;;;;15.00;11.90;;;;;;;-3.85;100.00;99633.80;88877;280;22527;-75
2023/11/30 02:09:57;;;;;;;14.90;9.80;;;;;;;-3.87;100.00;99638.18;89134;272;136948;-79
2023/11/30 02:11:59;;;;;;;17.70;11.00;;;;;;;-3.91;100.00;99639.63;89084;276;23608;-76
2023/11/30 02:14:03;;;;;;;18.30;11.60;;;;;;;-4.04;100.00;99629.83;89059;277;135586;-78
2023/11/30 02:16:06;;;;;;;16.80;10.90;;;;;;;-3.97;100.00;99643.56;89093;279;136119;-80
2023/11/30 02:18:08;;;;;;;17.50;11.60;;;;;;;-4.00;100.00;99642.21;88919;272;22547;-80
2023/11/30 02:20:10;;;;;;;18.40;11.40;;;;;;;-3.97;100.00;99646.55;89014;272;136477;-80
2023/11/30 02:22:12;;;;;;;19.80;13.70;;;;;;;-3.87;100.00;99646.46;88958;274;22610;-77
2023/11/30 02:24:14;;;;;;;17.70;11.20;;;;;;;-3.82;100.00;99653.77;88912;278;136926;-79
2023/11/30 02:26:17;;;;;;;19.10;13.20;;;;;;;-3.84;100.00;99655.66;88949;277;24014;-80
2023/11/30 02:28:20;;;;;;;15.20;10.70;;;;;;;-3.88;100.00;99653.88;88927;279;136139;-79
2023/11/30 02:30:22;;;;;;;18.70;12.50;;;;;;;-3.94;100.00;99649.42;89147;272;22524;-78
2023/11/30 02:32:24;;;;;;;17.50;12.40;;;;;;;-3.98;100.00;99650.92;88979;279;135970;-78
2023/11/30 02:34:25;;;;;;;18.70;13.00;;;;;;;-3.98;100.00;99654.94;88943;277;25193;-81
2023/11/30 02:36:27;;;;;;;18.30;11.70;;;;;;;-3.99;100.00;99651.35;88963;279;136220;-82
2023/11/30 02:38:30;;;;;;;16.00;11.60;;;;;;;-3.98;100.00;99651.09;89034;272;23868;-80
2023/11/30 02:40:32;;;;;;;15.90;10.50;;;;;;;-3.90;100.00;99655.36;89042;271;138882;-78
2023/11/30 02:42:34;;;;;;;20.60;12.40;;;;;;;-3.82;100.00;99652.00;89028;273;22563;-78
2023/11/30 02:44:36;;;;;;;21.90;15.00;;;;;;;-3.76;100.00;99659.92;89053;281;136595;-77
2023/11/30 02:46:37;;;;;;;21.30;15.10;;;;;;;-3.83;100.00;99663.88;89156;280;22552;-78
2023/11/30 02:48:39;;;;;;;23.00;14.50;;;;;;;-3.86;100.00;99666.06;89245;277;135791;-75
2023/11/30 02:50:42;;;;;;;25.50;15.00;;;;;;;-3.87;100.00;99662.14;89199;273;23705;-73
2023/11/30 02:52:45;;;;;;;21.70;14.20;;;;;;;-3.87;100.00;99665.75;89216;277;135787;-77
2023/11/30 02:54:46;;;;;;;20.60;13.70;;;;;;;-3.88;100.00;99667.77;89106;280;25124;-80
2023/11/30 02:56:49;;;;;;;21.50;13.10;;;;;;;-3.92;100.00;99662.65;89080;279;135986;-78
2023/11/30 02:58:50;;;;;;;20.10;14.10;;;;;;;-3.95;100.00;99664.40;88977;276;24094;-76
2023/11/30 03:00:52;;;;;;;19.30;12.80;;;;;;;-3.97;100.00;99663.33;88899;279;137408;-77
2023/11/30 03:02:54;;;;;;;21.00;13.40;;;;;;;-3.92;100.00;99669.58;89086;280;25185;-79
2023/11/30 03:04:56;;;;;;;19.20;12.90;;;;;;;-3.82;100.00;99666.61;89011;276;136673;-79
2023/11/30 03:06:58;;;;;;;22.40;15.20;;;;;;;-3.72;100.00;99669.13;88968;274;23875;-77
2023/11/30 03:08:59;;;;;;;23.50;13.70;;;;;;;-3.72;100.00;99667.59;88928;277;136760;-79
2023/11/30 03:11:01;;;;;;;19.60;12.40;;;;;;;-3.85;100.00;99655.92;88996;279;22756;-80
2023/11/30 03:13:03;;;;;;;20.30;13.90;;;;;;;-3.82;100.00;99667.63;88893;273;135998;-78
2023/11/30 03:15:06;;;;;;;22.50;13.80;;;;;;;-3.84;100.00;99670.37;89018;274;25061;-79
2023/11/30 03:17:08;;;;;;;21.20;13.70;;;;;;;-3.86;100.00;99673.02;89014;280;136005;-79
2023/11/30 03:19:10;;;;;;;22.40;14.40;;;;;;;-3.89;100.00;99680.14;88955;276;23752;-80
2023/11/30 03:21:19;;;;;;;21.00;13.00;;;;;;;-3.93;100.00;99669.85;88884;280;137259;-79
2023/11/30 03:23:22;;;;;;;22.70;13.70;;;;;;;-3.74;100.00;99678.00;89032;280;22530;-79
2023/11/30 03:25:24;;;;;;;21.10;12.40;;;;;;;-3.67;100.00;99682.85;88906;281;136125;-78
2023/11/30 03:27:26;;;;;;;20.00;12.50;;;;;;;-3.66;100.00;99681.94;89065;273;23190;-79
2023/11/30 03:29:28;;;;;;;21.00;13.90;;;;;;;-3.69;100.00;99688.94;89213;276;135951;-77
2023/11/30 03:31:30;;;;;;;22.10;13.60;;;;;;;-3.74;100.00;99693.81;89300;280;24056;-81
2023/11/30 03:33:32;;;;;;;21.20;13.00;;;;;;;-3.77;100.00;99694.34;89119;281;137868;-78
2023/11/30 03:35:33;;;;;;;25.30;15.10;;;;;;;-3.78;100.00;99707.42;89118;273;24097;-80
2023/11/30 03:37:40;;;;;;;22.10;13.90;;;;;;;-3.79;100.00;99709.60;89022;279;136435;-80
2023/11/30 03:39:42;;;;;;;21.10;14.90;;;;;;;-3.80;100.00;99712.97;89068;280;22689;-79
2023/11/30 03:41:44;;;;;;;18.90;12.60;;;;;;;-3.81;100.00;99711.48;89014;273;136501;-80
2023/11/30 03:43:47;;;;;;;23.80;13.70;;;;;;;-3.76;100.00;99714.81;88998;280;23517;-79
2023/11/30 03:45:50;;;;;;;20.10;12.70;;;;;;;-3.66;100.00;99712.84;89079;280;136858;-82
2023/11/30 03:47:51;;;;;;;23.10;14.00;;;;;;;-3.62;100.00;99707.16;88890;278;24184;-79
2023/11/30 03:49:54;;;;;;;18.90;13.40;;;;;;;-3.65;100.00;99710.85;88805;280;135900;-78
2023/11/30 03:51:56;;;;;;;21.30;14.50;;;;;;;-3.72;100.00;99706.51;88897;278;23198;-76
2023/11/30 03:53:58;;;;;;;18.20;13.00;;;;;;;-3.78;100.00;99712.52;88824;281;136116;-78
2023/11/30 03:56:00;;;;;;;19.60;13.30;;;;;;;-3.84;100.00;99712.55;88894;281;22539;-75
2023/11/30 03:58:03;;;;;;;23.30;14.90;;;;;;;-3.89;100.00;99714.68;88825;273;22662;-79
2023/11/30 04:00:12;;;;;;;22.30;14.10;;;;;;;-4.10;100.00;99695.00;88710;277;136071;-78
2023/11/30 04:02:15;;;;;;;26.00;13.30;;;;;;;-4.01;100.00;99715.52;89202;281;24153;-78
2023/11/30 04:04:17;;;;;;;21.90;14.30;;;;;;;-3.96;100.00;99714.98;88836;273;137222;-79
2023/11/30 04:06:20;;;;;;;24.60;13.50;;;;;;;-3.94;100.00;99721.64;88819;275;24370;-78
2023/11/30 04:08:22;;;;;;;20.60;12.40;;;;;;;-3.94;100.00;99724.39;89041;280;136620;-80
2023/11/30 04:10:24;;;;;;;19.10;11.80;;;;;;;-3.97;100.00;99720.27;88935;280;22549;-80
2023/11/30 04:12:28;;;;;;;21.10;13.40;;;;;;;-4.25;100.00;99685.86;89065;272;136164;-78
2023/11/30 04:14:34;;;;;;;23.30;13.70;;;;;;;-4.08;100.00;99728.20;89260;274;22533;-78
2023/11/30 04:16:37;;;;;;;23.00;14.70;;;;;;;-4.13;100.00;99724.17;88921;279;137545;-77
2023/11/30 04:18:40;;;;;;;21.00;13.20;;;;;;;-4.16;100.00;99723.88;89156;279;22536;-78
2023/11/30 04:20:42;;;;;;;20.50;13.20;;;;;;;-4.18;100.00;99732.40;88908;280;138428;-76
2023/11/30 04:22:43;;;;;;;24.10;13.00;;;;;;;-4.14;100.00;99735.23;88956;276;26324;-79
2023/11/30 04:24:45;;;;;;;23.20;14.10;;;;;;;-4.05;100.00;99736.14;88947;276;138858;-78
2023/11/30 04:26:47;;;;;;;19.70;12.40;;;;;;;-4.02;100.00;99737.45;88953;273;24017;-77
2023/11/30 04:28:49;;;;;;;18.80;12.60;;;;;;;-4.06;100.00;99732.90;88852;276;136544;-76
2023/11/30 04:30:52;;;;;;;19.80;13.10;;;;;;;-4.14;100.00;99739.33;88986;274;25245;-78
2023/11/30 04:32:54;;;;;;;21.40;13.00;;;;;;;-4.20;100.00;99743.27;88876;273;137272;-75
2023/11/30 04:34:59;;;;;;;25.70;15.80;;;;;;;-4.27;100.00;99743.92;88992;278;22545;-79
2023/11/30 04:37:00;;;;;;;19.60;12.80;;;;;;;-4.32;100.00;99744.48;88990;274;137943;-78
2023/11/30 04:39:04;;;;;;;20.60;12.80;;;;;;;-4.36;100.00;99741.30;88925;274;23647;-80
2023/11/30 04:41:06;;;;;;;18.00;11.90;;;;;;;-4.35;100.00;99745.00;88966;273;137820;-78
2023/11/30 04:43:08;;;;;;;19.40;13.10;;;;;;;-4.27;100.00;99745.86;88949;273;24034;-79
2023/11/30 04:45:10;;;;;;;21.30;13.30;;;;;;;-4.24;100.00;99742.48;88840;274;136768;-80
2023/11/30 04:47:13;;;;;;;19.00;12.70;;;;;;;-4.20;100.00;99740.70;88933;277;22649;-80
2023/11/30 04:49:15;;;;;;;17.90;11.10;;;;;;;-4.22;100.00;99737.52;88903;272;136237;-80
2023/11/30 04:51:17;;;;;;;18.50;12.20;;;;;;;-4.27;100.00;99738.24;89015;273;25866;-76
2023/11/30 04:53:18;;;;;;;21.10;13.30;;;;;;;-4.33;100.00;99738.63;88859;281;136517;-76
2023/11/30 04:55:21;;;;;;;18.60;13.10;;;;;;;-4.37;100.00;99742.20;88924;281;22529;-78
2023/11/30 04:57:23;;;;;;;21.90;13.80;;;;;;;-4.40;100.00;99740.33;88887;273;137762;-79
2023/11/30 04:59:24;;;;;;;24.50;14.60;;;;;;;-4.42;100.00;99738.77;89043;277;25083;-77
2023/11/30 05:01:26;;;;;;;18.40;12.30;;;;;;;-4.44;100.00;99740.48;88907;273;138659;-79
2023/11/30 05:03:28;;;;;;;20.30;11.90;;;;;;;-4.46;100.00;99743.68;88837;274;22511;-75
2023/11/30 05:05:31;;;;;;;21.70;13.80;;;;;;;-4.40;100.00;99741.86;88817;273;138713;-80
2023/11/30 05:07:33;;;;;;;21.30;12.60;;;;;;;-4.34;100.00;99749.93;88831;276;25337;-76
2023/11/30 05:09:35;;;;;;;21.20;13.10;;;;;;;-4.29;100.00;99752.04;88573;274;136568;-78
2023/11/30 05:11:37;;;;;;;20.90;12.40;;;;;;;-4.28;100.00;99758.23;89124;280;22554;-73
2023/11/30 05:13:39;;;;;;;21.30;13.50;;;;;;;-4.30;100.00;99766.19;88733;273;137302;-71
2023/11/30 05:15:40;;;;;;;21.30;13.60;;;;;;;-4.35;100.00;99769.80;88860;273;26710;-73
2023/11/30 05:17:43;;;;;;;21.30;13.60;;;;;;;-4.39;100.00;99770.14;88888;280;137217;-73
2023/11/30 05:19:45;;;;;;;21.70;12.90;;;;;;;-4.43;100.00;99773.16;88876;277;22536;-72
2023/11/30 05:21:47;;;;;;;23.70;13.30;;;;;;;-4.46;100.00;99774.08;88650;279;136506;-79
2023/11/30 05:23:51;;;;;;;21.70;14.00;;;;;;;-4.50;100.00;99776.05;88993;280;24018;-79
2023/11/30 05:25:53;;;;;;;22.20;13.30;;;;;;;-4.53;100.00;99776.58;88924;271;138035;-76
2023/11/30 05:27:57;;;;;;;19.90;12.80;;;;;;;-4.51;100.00;99778.55;88912;279;24099;-80
2023/11/30 05:29:58;;;;;;;20.60;12.70;;;;;;;-4.44;100.00;99786.11;89030;278;137325;-79
2023/11/30 05:32:01;;;;;;;17.60;11.50;;;;;;;-4.41;100.00;99786.00;88982;273;22584;-78
2023/11/30 05:34:03;;;;;;;21.60;13.60;;;;;;;-4.38;100.00;99793.11;88776;277;22537;-79
2023/11/30 05:36:06;;;;;;;22.70;12.50;;;;;;;-4.40;100.00;99786.64;88881;272;136529;-75
2023/11/30 05:38:08;;;;;;;18.80;12.70;;;;;;;-4.43;100.00;99784.98;88904;274;22626;-71
2023/11/30 05:40:11;;;;;;;20.40;13.30;;;;;;;-4.46;100.00;99784.30;88776;273;137180;-69
2023/11/30 05:42:13;;;;;;;24.00;14.00;;;;;;;-4.50;100.00;99787.45;88582;277;26298;-68
2023/11/30 05:44:15;;;;;;;21.30;12.80;;;;;;;-4.51;100.00;99787.05;88523;281;136719;-72
2023/11/30 05:46:18;;;;;;;20.30;11.80;;;;;;;-4.54;100.00;99788.77;88839;280;22596;-71
2023/11/30 05:48:20;;;;;;;21.00;13.50;;;;;;;-4.47;100.00;99788.85;88516;279;137695;-71
2023/11/30 05:50:22;;;;;;;25.20;12.40;;;;;;;-4.38;100.00;99790.67;88596;272;22531;-73
2023/11/30 05:52:24;;;;;;;20.20;12.10;;;;;;;-4.34;100.00;99794.89;88791;279;136778;-72
2023/11/30 05:54:28;;;;;;;17.90;11.70;;;;;;;-4.35;100.00;99798.30;88888;274;25242;-70
2023/11/30 05:56:30;;;;;;;21.10;13.10;;;;;;;-4.49;100.00;99782.90;88823;272;136193;-70
2023/11/30 05:58:32;;;;;;;22.00;14.80;;;;;;;-4.40;100.00;99800.18;88823;272;23064;-72
2023/11/30 06:00:34;;;;;;;20.40;13.60;;;;;;;-4.41;100.00;99801.45;88566;280;137342;-71
2023/11/30 06:02:36;;;;;;;21.60;13.40;;;;;;;-4.42;100.00;99801.04;88630;273;24030;-71
2023/11/30 06:04:49;;;;;;;23.20;13.00;;;;;;;-4.40;100.00;99807.13;88517;277;137184;-72
2023/11/30 06:06:51;;;;;;;20.90;11.80;;;;;;;-4.29;100.00;99814.31;88825;279;23052;-70
2023/11/30 06:08:53;;;;;;;20.90;12.80;;;;;;;-4.21;100.00;99813.40;88580;272;138520;-73
2023/11/30 06:10:55;;;;;;;28.90;14.20;;;;;;;-4.20;100.00;99819.26;88726;277;22777;-70
2023/11/30 06:12:57;;;;;;;23.70;15.00;;;;;;;-4.21;100.00;99823.67;88579;276;136659;-70
2023/11/30 06:14:59;;;;;;;23.00;14.40;;;;;;;-4.24;100.00;99816.22;88619;272;22555;-69
2023/11/30 06:17:02;;;;;;;21.50;14.60;;;;;;;-4.16;100.00;99833.41;88572;279;136448;-70
2023/11/30 06:19:04;;;;;;;22.60;14.60;;;;;;;-4.16;100.00;99837.52;88519;281;23873;-72
2023/11/30 06:21:10;;;;;;;26.20;13.90;;;;;;;-4.13;100.00;99839.27;88481;273;136933;-72
2023/11/30 06:23:12;;;;;;;19.80;12.20;;;;;;;-4.00;100.00;99843.54;88634;277;24014;-70
2023/11/30 06:25:14;;;;;;;23.10;13.30;;;;;;;-4.01;100.00;99822.47;88539;277;137271;-71
2023/11/30 06:27:16;;;;;;;21.70;13.80;;;;;;;-3.78;100.00;99852.45;88782;280;22596;-68
2023/11/30 06:29:19;;;;;;;20.40;14.10;;;;;;;-3.75;100.00;99853.97;88583;280;136785;-71
2023/11/30 06:31:21;;;;;;;22.30;13.70;;;;;;;-3.76;100.00;99860.48;88686;273;22561;-71
2023/11/30 06:33:23;;;;;;;26.70;16.50;;;;;;;-3.77;100.00;99856.16;88394;281;137853;-71
2023/11/30 06:35:25;;;;;;;24.00;15.30;;;;;;;-3.76;100.00;99857.83;88541;281;24899;-71
2023/11/30 06:37:27;;;;;;;24.10;15.50;;;;;;;-3.73;100.00;99857.95;88521;274;136423;-72
2023/11/30 06:39:30;;;;;;;25.60;16.10;;;;;;;-3.68;100.00;99860.80;88463;281;24166;-73
2023/11/30 06:41:32;;;;;;;24.10;15.80;;;;;;;-3.64;100.00;99861.35;88651;272;136695;-72
2023/11/30 06:43:34;;;;;;;24.10;15.70;;;;;;;-3.56;100.00;99862.83;88783;271;24074;-74
2023/11/30 06:45:36;;;;;;;23.80;14.40;;;;;;;-3.42;100.00;99864.44;88582;272;137200;-74
2023/11/30 06:47:38;;;;;;;21.40;13.50;;;;;;;-3.31;100.00;99867.31;88551;279;22549;-72
2023/11/30 06:49:40;;;;;;;20.30;13.40;;;;;;;-3.26;100.00;99868.36;88455;276;137981;-71
2023/11/30 06:51:42;;;;;;;23.80;14.60;;;;;;;-3.24;100.00;99875.02;88467;280;23001;-69
2023/11/30 06:53:46;;;;;;;28.40;15.40;;;;;;;-3.22;100.00;99876.43;88413;273;136589;-68
2023/11/30 06:55:47;;;;;;;24.10;14.10;;;;;;;-3.22;100.00;99883.69;88403;280;24228;-69
2023/11/30 06:57:49;;;;;;;22.90;14.30;;;;;;;-3.20;100.00;99883.42;88402;276;136484;-68
2023/11/30 06:59:51;;;;;;;22.30;14.80;;;;;;;-3.18;100.00;99891.23;88608;276;22616;-70
2023/11/30 07:01:53;;;;;;;24.30;13.50;;;;;;;-3.06;100.00;99891.10;88486;280;137158;-75
2023/11/30 07:03:56;;;;;;;24.90;14.60;;;;;;;-2.96;100.00;99894.52;88634;277;24018;-73
2023/11/30 07:05:58;;;;;;;26.40;15.00;;;;;;;-2.94;100.00;99895.41;88455;280;137149;-73
2023/11/30 07:08:00;;;;;;;27.80;17.10;;;;;;;-2.97;100.00;99900.12;88595;273;25080;-71
2023/11/30 07:10:04;;;;;;;26.00;16.00;;;;;;;-3.02;100.00;99904.82;88667;279;22524;-72
2023/11/30 07:12:06;;;;;;;25.20;15.00;;;;;;;-3.04;100.00;99908.79;88704;276;136678;-74
2023/11/30 07:14:09;;;;;;;23.90;15.20;;;;;;;-3.03;100.00;99912.90;88604;279;24251;-73
2023/11/30 07:16:11;;;;;;;22.50;13.50;;;;;;;-3.01;100.00;99913.32;88451;277;136840;-76
2023/11/30 07:18:13;;;;;;;22.70;13.60;;;;;;;-3.02;100.00;99904.65;88647;280;22536;-74
2023/11/30 07:20:16;;;;;;;24.70;13.40;;;;;;;-2.80;100.00;99918.23;88559;276;137551;-75
2023/11/30 07:22:18;;;;;;;22.20;14.30;;;;;;;-2.78;100.00;99911.84;88615;277;24148;-77
2023/11/30 07:24:20;;;;;;;22.10;12.80;;;;;;;-2.68;100.00;99922.19;90325;280;138878;-72
2023/11/30 07:26:23;;;;;;;23.30;14.40;;;;;;;-2.69;100.00;99921.73;88751;273;22532;-73
2023/11/30 07:28:26;;;;;;;27.20;15.60;;;;;;;-2.69;100.00;99926.93;88533;273;137850;-72
2023/11/30 07:30:28;;;;;;;27.20;15.60;;;;;;;-2.67;100.00;99930.30;91319;280;22356;-75
2023/11/30 07:32:30;;;;;;;25.30;17.10;;;;;;;-2.65;100.00;99929.10;91203;280;135989;-73
2023/11/30 07:34:35;;;;;;;22.30;14.40;;;;;;;-2.60;100.00;99932.41;91299;280;22336;-72
2023/11/30 07:36:36;;;;;;;27.20;15.70;;;;;;;-2.64;100.00;99920.88;91106;280;136675;-74
2023/11/30 07:38:39;;;;;;;25.00;15.70;;;;;;;-2.47;100.00;99935.09;91149;279;22602;-71
2023/11/30 07:40:42;;;;;;;23.90;14.90;;;;;;;-2.34;100.00;99939.51;91177;280;136810;-73
2023/11/30 07:42:44;;;;;;;25.60;16.20;;;;;;;-2.24;100.00;99938.90;91317;280;23077;-74
2023/11/30 07:44:46;;;;;;;25.70;15.20;;;;;;;-2.18;100.00;99940.03;91220;279;136335;-75
2023/11/30 07:46:48;;;;;;;24.50;14.80;;;;;;;-2.12;100.00;99947.11;90725;273;22534;-69
2023/11/30 07:48:53;;;;;;;23.90;16.20;;;;;;;-2.19;100.00;99935.95;91242;279;138068;-75
2023/11/30 07:50:55;;;;;;;26.00;17.30;;;;;;;-2.11;100.00;99953.33;91316;280;22450;-71
2023/11/30 07:52:57;;;;;;;21.20;15.30;;;;;;;-2.10;100.00;99960.90;90354;280;139958;-72
2023/11/30 07:54:59;;;;;;;26.40;15.00;;;;;;;-2.10;100.00;99959.50;88363;277;22527;-74
2023/11/30 07:57:01;;;;;;;22.80;16.10;;;;;;;-2.08;100.00;99964.70;88316;278;136876;-75
2023/11/30 07:59:03;;;;;;;21.60;14.00;;;;;;;-2.01;100.00;99964.50;88350;276;22782;-74
2023/11/30 08:01:05;;;;;;;24.10;15.10;;;;;;;-1.91;100.00;99966.05;88353;276;136841;-76
2023/11/30 08:03:07;;;;;;;26.10;15.80;;;;;;;-1.90;100.00;99961.77;88377;272;22530;-74
2023/11/30 08:05:12;;;;;;;23.90;16.80;;;;;;;-1.92;100.00;99965.77;88948;277;137479;-77
2023/11/30 08:07:14;;;;;;;25.40;15.30;;;;;;;-1.90;100.00;99963.55;88498;273;22523;-72
2023/11/30 08:09:16;;;;;;;24.50;15.30;;;;;;;-1.88;100.00;99964.73;88329;280;136324;-72
2023/11/30 08:11:19;;;;;;;24.20;15.50;;;;;;;-1.85;100.00;99963.30;91312;280;22624;-73
2023/11/30 08:13:21;;;;;;;22.60;14.80;;;;;;;-1.82;100.00;99968.27;91196;272;137047;-75
2023/11/30 08:15:23;;;;;;;23.30;14.10;;;;;;;-1.75;100.00;99969.50;91318;281;22489;-74
2023/11/30 08:17:25;;;;;;;25.30;14.80;;;;;;;-1.61;100.00;99966.33;91175;280;136662;-72
2023/11/30 08:19:27;;;;;;;20.60;13.40;;;;;;;-1.47;100.00;99975.02;91203;280;22343;-75
2023/11/30 08:21:30;;;;;;;24.40;15.70;;;;;;;-1.57;100.00;99943.38;88238;277;137723;-72
2023/11/30 08:23:33;;;;;;;21.60;14.90;;;;;;;-1.37;100.00;99973.02;88290;272;22548;-75
2023/11/30 08:25:35;;;;;;;29.00;16.00;;;;;;;-1.32;100.00;99974.06;88299;277;136289;-68
2023/11/30 08:27:37;;;;;;;28.50;16.00;;;;;;;-1.27;100.00;99977.98;88427;273;22524;-72
2023/11/30 08:29:40;;;;;;;21.90;14.40;;;;;;;-1.20;100.00;99977.55;91073;280;136362;-74
2023/11/30 08:31:42;;;;;;;26.90;16.10;;;;;;;-1.11;100.00;99979.02;91234;280;22330;-75
2023/11/30 08:33:47;;;;;;;22.40;14.60;;;;;;;-1.01;100.00;99980.45;91247;280;139511;-73
2023/11/30 08:35:48;;;;;;;24.20;15.60;;;;;;;-0.89;100.00;99980.25;89389;276;22537;-73
2023/11/30 08:37:50;;;;;;;24.00;15.70;;;;;;;-0.86;100.00;99974.89;88210;272;137521;-73
2023/11/30 08:39:52;;;;;;;26.40;15.40;;;;;;;-0.82;100.00;99971.42;88292;273;22540;-72
2023/11/30 08:41:54;;;;;;;22.20;12.90;;;;;;;-0.73;100.00;99972.80;88177;277;137542;-72
2023/11/30 08:43:56;;;;;;;21.80;14.10;;;;;;;-0.68;100.00;99964.59;90447;281;22562;-73
2023/11/30 08:45:59;;;;;;;24.70;13.00;;;;;;;-0.68;100.00;99958.65;88352;276;136332;-75
2023/11/30 08:48:01;;;;;;;23.80;14.90;;;;;;;-0.70;100.00;99960.70;88383;273;22542;-72
2023/11/30 08:50:04;;;;;;;23.30;14.40;;;;;;;-0.70;100.00;99949.35;88301;273;22527;-73
2023/11/30 08:52:06;;;;;;;23.60;14.20;;;;;;;-0.69;100.00;99948.73;87783;280;712364;-73
2023/11/30 08:54:08;;;;;;;24.50;13.80;;;;;;;-0.68;100.00;99951.10;88373;273;22530;-73
2023/11/30 08:56:10;;;;;;;28.10;15.40;;;;;;;-0.67;100.00;99950.50;88323;277;136635;-73
2023/11/30 08:58:13;;;;;;;27.00;15.80;;;;;;;-0.71;100.00;99941.79;91320;280;22345;-71
2023/11/30 09:00:15;;;;;;;24.40;16.30;;;;;;;-0.65;100.00;99950.68;89986;281;136228;-74
2023/11/30 09:02:24;;;;;;;24.30;15.20;;;;;;;-0.67;100.00;99947.85;88344;274;22607;-73
2023/11/30 09:04:26;;;;;;;;;;;;;;;-0.60;100.00;99956.56;91193;280;138454;-73
2023/11/30 09:06:28;;;;;;;18.90;12.50;;;;;;;-0.57;100.00;99957.38;91303;280;22329;-74
2023/11/30 09:08:30;;;;;;;26.60;15.00;;;;;;;-0.52;100.00;99954.17;91198;280;137196;-75
2023/11/30 09:10:31;;;;;;;21.20;12.00;;;;;;;-0.40;100.00;99955.42;89727;273;22543;-71
2023/11/30 09:12:33;;;;;;;22.80;12.80;;;;;;;-0.22;100.00;99959.56;88195;273;137015;-73
2023/11/30 09:14:35;;;;;;;19.10;12.00;;;;;;;-0.07;100.00;99957.29;88326;273;24058;-78
2023/11/30 09:16:37;;;;;;;17.60;11.90;;;;;;;-0.01;99.96;99959.34;88264;273;136509;-71
2023/11/30 09:18:39;;;;;;;25.40;15.20;;;;;;;0.00;99.34;99955.98;88303;281;22524;-74
2023/11/30 09:20:41;;;;;;;19.40;12.80;;;;;;;-0.09;98.48;99953.03;88234;272;136200;-74
2023/11/30 09:22:43;;;;;;;17.90;12.40;;;;;;;-0.10;98.84;99955.06;88330;272;22619;-75